Startpagina
METAR-TAF:

METAR-TAF

Vliegvelden :

Badajoz, Spanje

breedte: 38-53N, lengte: 006-49W, hoogte: 185 m

Actueel weer

Dit bericht is 51 minuten geleden gemaakt, om 11:00 UTC
Wind 4 kt uit het zuidwesten, variërend tussen het zuiden en het noordnoordwesten
Temperatuur 22°C
Vochtigheid 46%
Druk 1015 hPa
Zicht: 9000 m

METAR: LEBZ 051100Z AUTO 23004KT 170V330 9000 NCD 22/10 Q1015

Tijdstip: 13:51 (11:51 UTC)

Verwachting

Dit bericht is 51 minuten geleden gemaakt, om 11:00 UTC
Verwachting geldig van 05 om 12 UTC tot 06 om 12 UTC
Wind 8 kt uit het westzuidwesten
Zicht 10 km of meer
Weinig wolken op 4000 ft

TAF: LEBZ 051100Z 0512/0612 25008KT 9999 FEW040 TX29/0516Z TN12/0605Z

Waarnemingen en weersverwachtingen van meer dan 4000 vliegvelden (METAR en TAF).

De beschikbare stations zijn de gele en rode punten op de kaart.

Ga met uw muis naar het station om de naam te zien.

Klik dan om waarnemingen en weersverwachtingen te zien.

kaart wijzigen: klik op de groene knoppen met een zwart kruis om in te zoomen, op de groene knop met een streepje om uit te zoomen of op de groene pijlen voor aangrenzende kaarten.


METAR-TAF: